createdAt,value
2022-09-09T00:01:33.003Z,90.80
2022-09-09T00:04:18.568Z,91.10
2022-09-09T00:06:56.195Z,91.30
2022-09-09T00:09:28.684Z,91.10
2022-09-09T00:12:16.540Z,91.00
2022-09-09T00:14:56.568Z,91.90
2022-09-09T00:17:40.516Z,91.60
2022-09-09T00:20:20.731Z,92.00
2022-09-09T00:23:25.843Z,91.80
2022-09-09T00:26:23.071Z,92.00
2022-09-09T00:28:55.891Z,93.00
2022-09-09T00:31:31.711Z,92.90
2022-09-09T00:34:13.804Z,93.30
2022-09-09T00:36:42.408Z,93.20
2022-09-09T00:39:46.390Z,93.00
2022-09-09T00:42:43.877Z,93.60
2022-09-09T00:45:16.984Z,93.80
2022-09-09T00:48:11.252Z,93.80
2022-09-09T00:50:50.544Z,94.40
2022-09-09T00:53:23.976Z,94.60
2022-09-09T00:56:02.740Z,95.10
2022-09-09T00:58:29.923Z,94.80
2022-09-09T01:01:07.693Z,95.00
2022-09-09T01:03:56.837Z,95.20
2022-09-09T01:06:34.276Z,95.40
2022-09-09T01:09:24.787Z,95.90
2022-09-09T01:12:15.178Z,95.80
2022-09-09T01:14:49.610Z,96.00
2022-09-09T01:17:23.972Z,96.50
2022-09-09T01:20:11.689Z,96.60
2022-09-09T01:22:47.843Z,97.20
2022-09-09T01:25:45.165Z,96.70
2022-09-09T01:28:18.033Z,96.90
2022-09-09T01:30:45.032Z,96.90
2022-09-09T01:33:19.301Z,97.20
2022-09-09T01:35:57.879Z,97.20
2022-09-09T01:38:26.324Z,97.20
2022-09-09T01:40:54.102Z,98.40
2022-09-09T01:43:22.603Z,98.10
2022-09-09T01:45:53.214Z,98.00
2022-09-09T01:48:21.334Z,98.10
2022-09-09T01:50:48.094Z,98.50
2022-09-09T01:53:17.013Z,98.40
2022-09-09T01:55:52.288Z,98.40
2022-09-09T01:58:38.017Z,98.70
2022-09-09T02:01:32.986Z,98.50
2022-09-09T02:04:04.268Z,98.40
2022-09-09T02:06:40.731Z,98.60
2022-09-09T02:09:11.459Z,98.30
2022-09-09T02:11:38.794Z,98.50
2022-09-09T02:14:17.584Z,98.60
2022-09-09T02:16:58.291Z,98.70
2022-09-09T02:19:33.640Z,98.60
2022-09-09T02:22:02.334Z,98.30
2022-09-09T02:24:32.648Z,98.70
2022-09-09T02:27:01.907Z,98.80
2022-09-09T02:29:46.459Z,98.70
2022-09-09T02:32:21.148Z,99.10
2022-09-09T02:35:00.794Z,99.10
2022-09-09T02:37:34.667Z,99.00
2022-09-09T02:40:02.820Z,98.80
2022-09-09T02:42:29.895Z,99.10
2022-09-09T02:44:56.874Z,99.30
2022-09-09T02:47:31.482Z,99.30
2022-09-09T02:50:14.494Z,99.70
2022-09-09T02:52:47.254Z,99.70
2022-09-09T02:55:43.320Z,99.80
2022-09-09T02:58:13.724Z,99.80
2022-09-09T03:00:41.328Z,99.90
2022-09-09T03:03:10.233Z,99.90
2022-09-09T03:05:37.222Z,99.90
2022-09-09T03:08:06.548Z,99.90
2022-09-09T03:10:34.224Z,99.90
2022-09-09T03:13:01.215Z,99.90
2022-09-09T03:15:31.211Z,99.90
2022-09-09T03:17:59.016Z,99.90
2022-09-09T03:20:27.319Z,99.90
2022-09-09T03:22:55.037Z,99.90
2022-09-09T03:25:24.944Z,99.90
2022-09-09T03:27:55.252Z,99.90
2022-09-09T03:30:26.732Z,99.90
2022-09-09T03:32:53.911Z,99.90
2022-09-09T03:35:20.712Z,99.90
2022-09-09T03:37:47.499Z,99.90
2022-09-09T03:40:14.950Z,99.90
2022-09-09T03:42:41.817Z,99.90
2022-09-09T03:45:11.516Z,99.90
2022-09-09T03:47:38.791Z,99.90
2022-09-09T03:50:09.573Z,99.90
2022-09-09T03:52:37.778Z,99.90
2022-09-09T03:55:05.729Z,99.90
2022-09-09T03:57:35.886Z,99.90
2022-09-09T04:00:12.146Z,99.90
2022-09-09T04:02:40.291Z,99.90
2022-09-09T04:05:07.975Z,99.90
2022-09-09T04:07:34.754Z,99.90
2022-09-09T04:10:01.888Z,99.90
2022-09-09T04:12:28.687Z,99.90
2022-09-09T04:14:55.440Z,99.90
2022-09-09T04:17:22.251Z,99.90
2022-09-09T04:19:49.212Z,99.90
2022-09-09T04:22:16.744Z,99.90
2022-09-09T04:24:48.077Z,99.90
2022-09-09T04:27:15.635Z,99.90
2022-09-09T04:29:42.443Z,99.90
2022-09-09T04:32:09.196Z,99.90
2022-09-09T04:34:35.997Z,99.90
2022-09-09T04:37:02.812Z,99.90
2022-09-09T04:39:29.909Z,99.90
2022-09-09T04:41:57.500Z,99.90
2022-09-09T04:44:24.285Z,99.90
2022-09-09T04:46:51.138Z,99.90
2022-09-09T04:49:18.753Z,99.90
2022-09-09T04:51:45.601Z,99.90
2022-09-09T04:54:12.765Z,99.90
2022-09-09T04:56:39.565Z,99.90
2022-09-09T04:59:06.631Z,99.90
2022-09-09T05:01:33.518Z,99.90
2022-09-09T05:04:00.371Z,99.90
2022-09-09T05:06:27.230Z,99.90
2022-09-09T05:08:53.990Z,99.90
2022-09-09T05:11:23.748Z,99.90
2022-09-09T05:13:51.379Z,99.90
2022-09-09T05:16:19.146Z,99.90
2022-09-09T05:18:47.126Z,99.90
2022-09-09T05:21:15.489Z,99.90
2022-09-09T05:23:42.278Z,99.90
2022-09-09T05:26:17.022Z,99.90
2022-09-09T05:28:44.658Z,99.90
2022-09-09T05:31:14.929Z,99.90
2022-09-09T05:33:44.084Z,99.90
2022-09-09T05:36:16.102Z,99.90
2022-09-09T05:38:43.539Z,99.90
2022-09-09T05:41:16.647Z,99.90
2022-09-09T05:43:50.620Z,99.90
2022-09-09T05:46:20.685Z,99.90
2022-09-09T05:48:49.051Z,99.90
2022-09-09T05:51:22.486Z,99.90
2022-09-09T05:53:50.018Z,99.90
2022-09-09T05:56:22.990Z,99.90
2022-09-09T05:58:50.816Z,99.90
2022-09-09T06:01:20.063Z,99.90
2022-09-09T06:03:49.098Z,99.90
2022-09-09T06:06:18.663Z,99.90
2022-09-09T06:08:46.347Z,99.90
2022-09-09T06:11:19.882Z,99.90
2022-09-09T06:13:46.895Z,99.90
2022-09-09T06:16:15.847Z,99.90
2022-09-09T06:18:43.487Z,99.90
2022-09-09T06:21:17.181Z,99.90
2022-09-09T06:23:48.155Z,99.90
2022-09-09T06:26:18.360Z,99.90
2022-09-09T06:28:46.713Z,99.90
2022-09-09T06:31:15.566Z,99.90
2022-09-09T06:33:43.171Z,99.90
2022-09-09T06:36:19.619Z,99.90
2022-09-09T06:38:47.067Z,99.90
2022-09-09T06:41:15.784Z,99.90
2022-09-09T06:43:42.866Z,99.90
2022-09-09T06:46:18.142Z,99.90
2022-09-09T06:48:45.872Z,99.90
2022-09-09T06:51:17.479Z,99.90
2022-09-09T06:53:45.771Z,99.90
2022-09-09T06:56:17.359Z,99.90
2022-09-09T06:58:45.111Z,99.90
2022-09-09T07:01:17.728Z,99.90
2022-09-09T07:03:49.144Z,99.90
2022-09-09T07:06:18.731Z,99.90
2022-09-09T07:08:56.302Z,99.90
2022-09-09T07:11:27.882Z,99.90
2022-09-09T07:13:55.325Z,99.90
2022-09-09T07:16:26.296Z,99.90
2022-09-09T07:18:56.475Z,99.90
2022-09-09T07:21:23.309Z,99.90
2022-09-09T07:23:50.120Z,99.90
2022-09-09T07:26:22.942Z,99.90
2022-09-09T07:28:50.212Z,99.90
2022-09-09T07:31:19.673Z,99.90
2022-09-09T07:33:47.719Z,99.90
2022-09-09T07:36:23.063Z,99.90
2022-09-09T07:38:56.741Z,99.90
2022-09-09T07:41:29.791Z,99.90
2022-09-09T07:43:56.922Z,99.90
2022-09-09T07:46:26.450Z,99.90
2022-09-09T07:48:55.887Z,99.90
2022-09-09T07:51:29.030Z,99.90
2022-09-09T07:54:02.915Z,99.90
2022-09-09T07:56:30.661Z,99.90
2022-09-09T07:58:59.759Z,99.90
2022-09-09T08:01:28.078Z,99.90
2022-09-09T08:04:02.306Z,99.90
2022-09-09T08:06:32.329Z,99.90
2022-09-09T08:08:59.489Z,99.90
2022-09-09T08:11:28.632Z,99.90
2022-09-09T08:14:00.250Z,99.90
2022-09-09T08:16:34.949Z,99.90
2022-09-09T08:19:01.763Z,99.90
2022-09-09T08:21:30.678Z,99.90
2022-09-09T08:23:59.226Z,99.90
2022-09-09T08:26:32.602Z,99.90
2022-09-09T08:29:00.983Z,99.90
2022-09-09T08:31:36.584Z,99.90
2022-09-09T08:34:04.562Z,99.90
2022-09-09T08:36:35.288Z,99.90
2022-09-09T08:39:02.511Z,99.90
2022-09-09T08:42:10.250Z,99.90
2022-09-09T08:44:46.851Z,99.90
2022-09-09T08:47:43.635Z,99.90
2022-09-09T08:50:25.805Z,99.90
2022-09-09T08:53:25.966Z,99.90
2022-09-09T08:56:04.542Z,99.90
2022-09-09T08:58:34.603Z,99.90
2022-09-09T09:01:10.391Z,99.90
2022-09-09T09:03:57.420Z,99.90
2022-09-09T09:06:37.385Z,99.90
2022-09-09T09:09:11.521Z,99.90
2022-09-09T09:11:49.864Z,99.90
2022-09-09T09:14:25.477Z,99.90
2022-09-09T09:16:57.946Z,99.90
2022-09-09T09:19:27.266Z,99.90
2022-09-09T09:21:57.128Z,99.90
2022-09-09T09:24:47.398Z,99.90
2022-09-09T09:27:27.102Z,99.90
2022-09-09T09:30:21.593Z,99.90
2022-09-09T09:32:51.684Z,99.90
2022-09-09T09:35:18.458Z,99.90
2022-09-09T09:40:32.798Z,99.90
2022-09-09T09:43:01.594Z,99.90
2022-09-09T09:45:33.406Z,99.90
2022-09-09T09:48:13.975Z,99.90
2022-09-09T09:50:59.570Z,99.90
2022-09-09T09:53:32.705Z,99.90
2022-09-09T09:56:02.485Z,99.90
2022-09-09T09:58:35.107Z,99.90
2022-09-09T10:01:02.563Z,99.90
2022-09-09T10:03:38.587Z,99.90
2022-09-09T10:06:06.014Z,99.90
2022-09-09T10:08:46.414Z,99.90
2022-09-09T10:11:15.081Z,99.90
2022-09-09T10:13:47.448Z,99.90
2022-09-09T10:16:31.111Z,99.90
2022-09-09T10:19:22.065Z,99.90
2022-09-09T10:22:03.323Z,99.90
2022-09-09T10:25:09.317Z,99.90
2022-09-09T10:27:48.385Z,99.90
2022-09-09T10:30:15.208Z,99.90
2022-09-09T10:32:58.132Z,99.90
2022-09-09T10:35:34.369Z,99.90
2022-09-09T10:38:20.983Z,99.90
2022-09-09T10:40:57.528Z,99.90
2022-09-09T10:44:06.205Z,99.90
2022-09-09T10:46:50.446Z,99.90
2022-09-09T10:49:47.400Z,99.90
2022-09-09T10:52:34.268Z,99.90
2022-09-09T10:55:11.333Z,99.90
2022-09-09T10:57:41.134Z,99.90
2022-09-09T11:00:20.774Z,99.90
2022-09-09T11:03:10.533Z,99.90
2022-09-09T11:06:10.206Z,99.90
2022-09-09T11:08:40.239Z,99.90
2022-09-09T11:11:31.117Z,99.90
2022-09-09T11:14:06.014Z,99.90
2022-09-09T11:16:53.362Z,99.90
2022-09-09T11:19:35.270Z,99.90
2022-09-09T11:22:39.894Z,99.90
2022-09-09T11:25:18.279Z,99.90
2022-09-09T11:27:57.643Z,99.90
2022-09-09T11:30:56.218Z,99.90
2022-09-09T11:33:35.801Z,99.90
2022-09-09T11:36:13.573Z,99.90
2022-09-09T11:38:54.217Z,99.90
2022-09-09T11:41:22.667Z,99.90
2022-09-09T11:43:49.632Z,99.90
2022-09-09T11:46:18.516Z,99.90
2022-09-09T11:48:58.063Z,99.90
2022-09-09T11:51:24.909Z,99.90
2022-09-09T11:53:58.336Z,99.90
2022-09-09T11:56:43.390Z,99.90
2022-09-09T11:59:29.184Z,99.90
2022-09-09T12:02:11.096Z,99.90
2022-09-09T12:04:45.807Z,99.90
2022-09-09T12:07:12.648Z,99.90
2022-09-09T12:09:45.919Z,99.90
2022-09-09T12:12:12.689Z,99.90
2022-09-09T12:15:02.817Z,99.90
2022-09-09T12:17:32.743Z,99.90
2022-09-09T12:20:24.665Z,99.90
2022-09-09T12:22:57.895Z,99.90
2022-09-09T12:25:25.118Z,99.90
2022-09-09T12:28:11.643Z,99.90
2022-09-09T12:31:02.605Z,99.90
2022-09-09T12:33:37.044Z,99.90
2022-09-09T12:36:07.325Z,99.90
2022-09-09T12:38:40.278Z,99.90
2022-09-09T12:41:07.452Z,99.90
2022-09-09T12:43:34.721Z,99.90
2022-09-09T12:46:05.363Z,99.90
2022-09-09T12:48:39.858Z,99.90
2022-09-09T12:51:19.095Z,99.90
2022-09-09T12:53:47.242Z,99.90
2022-09-09T12:56:22.402Z,99.90
2022-09-09T12:58:52.740Z,99.90
2022-09-09T13:01:26.697Z,99.90
2022-09-09T13:03:54.539Z,99.90
2022-09-09T13:06:28.601Z,99.90
2022-09-09T13:09:00.784Z,99.90
2022-09-09T13:11:30.830Z,99.90
2022-09-09T13:13:59.021Z,99.90
2022-09-09T13:16:42.562Z,99.90
2022-09-09T13:19:15.298Z,99.90
2022-09-09T13:21:43.639Z,99.90
2022-09-09T13:24:35.744Z,99.90
2022-09-09T13:27:29.668Z,99.90
2022-09-09T13:29:57.734Z,99.90
2022-09-09T13:32:27.855Z,99.90
2022-09-09T13:35:05.041Z,99.90
2022-09-09T13:37:40.107Z,99.90
2022-09-09T13:40:08.312Z,99.90
2022-09-09T13:42:39.805Z,99.90
2022-09-09T13:45:07.237Z,99.90
2022-09-09T13:47:36.507Z,99.90
2022-09-09T13:50:22.250Z,99.90
2022-09-09T13:52:52.162Z,99.90
2022-09-09T13:55:22.700Z,99.90
2022-09-09T13:58:01.728Z,99.90
2022-09-09T14:00:32.348Z,99.90
2022-09-09T14:03:02.596Z,99.90
2022-09-09T14:05:32.843Z,99.90
2022-09-09T14:08:01.680Z,99.90
2022-09-09T14:10:28.679Z,99.90
2022-09-09T14:12:55.613Z,99.90
2022-09-09T14:15:22.981Z,99.90
2022-09-09T14:17:49.976Z,99.90
2022-09-09T14:20:18.741Z,99.90
2022-09-09T14:22:45.722Z,99.90
2022-09-09T14:25:14.619Z,99.90
2022-09-09T14:27:41.710Z,99.90
2022-09-09T14:30:09.486Z,99.90
2022-09-09T14:32:36.357Z,99.90
2022-09-09T14:35:03.527Z,99.90
2022-09-09T14:37:32.168Z,99.90
2022-09-09T14:39:59.471Z,99.90
2022-09-09T14:42:27.792Z,99.90
2022-09-09T14:44:54.607Z,99.90
2022-09-09T14:47:21.477Z,99.90
2022-09-09T14:49:50.862Z,99.90
2022-09-09T14:52:17.818Z,99.90
2022-09-09T14:54:44.909Z,99.90
2022-09-09T14:57:11.772Z,99.90
2022-09-09T14:59:38.629Z,99.90
2022-09-09T15:02:06.239Z,99.90
2022-09-09T15:04:33.356Z,99.90
2022-09-09T15:07:00.425Z,99.90
2022-09-09T15:09:27.462Z,99.90
2022-09-09T15:11:54.406Z,99.90
2022-09-09T15:14:22.614Z,99.90
2022-09-09T15:16:52.765Z,99.90
2022-09-09T15:19:19.581Z,99.90
2022-09-09T15:21:46.496Z,99.90
2022-09-09T15:24:14.686Z,99.90
2022-09-09T15:26:41.814Z,99.90
2022-09-09T15:29:09.321Z,99.90
2022-09-09T15:31:36.401Z,99.90
2022-09-09T15:34:05.441Z,99.90
2022-09-09T15:36:44.819Z,99.90
2022-09-09T15:39:14.136Z,99.90
2022-09-09T15:41:41.242Z,99.90
2022-09-09T15:44:08.012Z,99.90
2022-09-09T15:46:40.062Z,99.90
2022-09-09T15:49:06.821Z,99.90
2022-09-09T15:51:49.231Z,99.90
2022-09-09T15:54:19.464Z,99.90
2022-09-09T15:56:49.812Z,99.90
2022-09-09T15:59:17.069Z,99.90
2022-09-09T16:01:45.265Z,99.90
2022-09-09T16:04:13.046Z,99.90
2022-09-09T16:06:40.234Z,99.90
2022-09-09T16:09:08.479Z,99.90
2022-09-09T16:11:38.792Z,99.90
2022-09-09T16:14:07.642Z,99.90
2022-09-09T16:16:36.139Z,99.90
2022-09-09T16:19:13.995Z,99.90
2022-09-09T16:21:46.387Z,99.90
2022-09-09T16:24:16.100Z,99.90
2022-09-09T16:26:46.806Z,99.90
2022-09-09T16:29:15.389Z,99.90
2022-09-09T16:31:42.710Z,99.90
2022-09-09T16:34:10.046Z,99.90
2022-09-09T16:36:40.017Z,99.90
2022-09-09T16:39:10.509Z,99.90
2022-09-09T16:41:38.186Z,99.90
2022-09-09T16:44:07.384Z,99.90
2022-09-09T16:46:40.033Z,99.90
2022-09-09T16:49:09.276Z,99.90
2022-09-09T16:51:48.260Z,99.90
2022-09-09T16:54:17.148Z,99.90
2022-09-09T16:56:46.097Z,99.90
2022-09-09T16:59:15.342Z,99.90
2022-09-09T17:01:44.462Z,99.90
2022-09-09T17:04:21.241Z,99.90
2022-09-09T17:06:53.218Z,99.90
2022-09-09T17:09:21.082Z,99.90
2022-09-09T17:11:48.918Z,99.90
2022-09-09T17:14:18.976Z,99.90
2022-09-09T17:16:45.992Z,99.90
2022-09-09T17:19:13.667Z,99.90
2022-09-09T17:21:59.968Z,99.90
2022-09-09T17:24:30.129Z,99.90
2022-09-09T17:26:58.318Z,99.90
2022-09-09T17:29:25.981Z,99.90
2022-09-09T17:31:52.969Z,99.90
2022-09-09T17:34:19.756Z,99.90
2022-09-09T17:36:46.714Z,99.90
2022-09-09T17:39:13.510Z,99.90
2022-09-09T17:41:40.843Z,99.90
2022-09-09T17:46:37.602Z,99.90
2022-09-09T17:49:07.399Z,99.90
2022-09-09T17:51:35.079Z,99.90
2022-09-09T17:54:05.295Z,99.90
2022-09-09T17:56:33.367Z,99.90
2022-09-09T17:59:01.883Z,99.90
2022-09-09T18:01:32.124Z,99.90
2022-09-09T18:04:04.198Z,99.90
2022-09-09T18:06:35.610Z,99.90
2022-09-09T18:09:06.310Z,99.90
2022-09-09T18:11:36.538Z,99.90
2022-09-09T18:14:04.815Z,99.90
2022-09-09T18:16:36.576Z,99.90
2022-09-09T18:19:05.548Z,99.90
2022-09-09T18:21:33.719Z,99.90
2022-09-09T18:24:02.681Z,99.90
2022-09-09T18:26:29.960Z,99.90
2022-09-09T18:28:59.401Z,99.90
2022-09-09T18:31:29.018Z,99.90
2022-09-09T18:33:58.796Z,99.90
2022-09-09T18:36:28.539Z,99.90
2022-09-09T18:38:59.373Z,99.90
2022-09-09T18:41:35.208Z,99.90
2022-09-09T18:44:05.502Z,99.90
2022-09-09T18:46:34.930Z,99.90
2022-09-09T18:49:02.605Z,99.90
2022-09-09T18:51:30.233Z,99.90
2022-09-09T18:54:03.670Z,99.90
2022-09-09T18:56:31.080Z,99.90
2022-09-09T18:59:00.737Z,99.90
2022-09-09T19:01:29.403Z,99.90
2022-09-09T19:03:57.160Z,99.90
2022-09-09T19:06:27.078Z,99.90
2022-09-09T19:08:56.868Z,99.90
2022-09-09T19:11:26.401Z,99.90
2022-09-09T19:14:01.789Z,99.90
2022-09-09T19:16:31.615Z,99.90
2022-09-09T19:19:01.179Z,99.90
2022-09-09T19:21:30.602Z,99.90
2022-09-09T19:24:07.280Z,99.90
2022-09-09T19:26:40.845Z,99.90
2022-09-09T19:29:10.141Z,99.90
2022-09-09T19:31:38.084Z,99.90
2022-09-09T19:34:05.367Z,99.90
2022-09-09T19:36:32.829Z,99.90
2022-09-09T19:39:00.427Z,99.90
2022-09-09T19:41:28.392Z,99.90
2022-09-09T19:44:01.970Z,99.90
2022-09-09T19:46:30.441Z,99.90
2022-09-09T19:48:58.345Z,99.90
2022-09-09T19:51:26.665Z,99.90
2022-09-09T19:53:56.435Z,99.90
2022-09-09T19:56:25.489Z,99.90
2022-09-09T19:58:53.411Z,99.90
2022-09-09T20:01:42.011Z,99.90
2022-09-09T20:04:09.306Z,99.90
2022-09-09T20:06:40.885Z,99.90
2022-09-09T20:09:10.943Z,99.90
2022-09-09T20:11:39.222Z,99.90
2022-09-09T20:14:06.386Z,99.90
2022-09-09T20:16:33.699Z,99.90
2022-09-09T20:19:02.795Z,99.90
2022-09-09T20:21:32.451Z,99.90
2022-09-09T20:24:05.983Z,99.90
2022-09-09T20:26:37.573Z,99.90
2022-09-09T20:29:07.720Z,99.90
2022-09-09T20:31:37.120Z,99.90
2022-09-09T20:34:06.175Z,99.90
2022-09-09T20:36:35.468Z,99.90
2022-09-09T20:39:10.822Z,99.90
2022-09-09T20:41:38.938Z,99.90
2022-09-09T20:44:14.228Z,99.90
2022-09-09T20:46:43.838Z,99.90
2022-09-09T20:49:11.787Z,99.90
2022-09-09T20:51:39.118Z,99.90
2022-09-09T20:54:12.105Z,99.90
2022-09-09T20:56:42.321Z,99.90
2022-09-09T20:59:14.975Z,99.90
2022-09-09T21:01:42.199Z,99.90
2022-09-09T21:04:09.772Z,99.90
2022-09-09T21:06:37.211Z,99.90
2022-09-09T21:09:04.983Z,99.90
2022-09-09T21:11:31.867Z,99.90
2022-09-09T21:13:59.637Z,99.90
2022-09-09T21:16:27.860Z,99.90
2022-09-09T21:18:55.107Z,99.90
2022-09-09T21:21:21.912Z,99.90
2022-09-09T21:23:49.687Z,99.90
2022-09-09T21:26:19.524Z,99.90
2022-09-09T21:28:46.458Z,99.90
2022-09-09T21:31:15.455Z,99.90
2022-09-09T21:33:43.078Z,99.90
2022-09-09T21:36:14.302Z,99.90
2022-09-09T21:38:42.214Z,99.90
2022-09-09T21:41:14.134Z,99.90
2022-09-09T21:43:42.409Z,99.90
2022-09-09T21:46:11.773Z,99.90
2022-09-09T21:48:38.707Z,99.90
2022-09-09T21:51:08.270Z,99.90
2022-09-09T21:53:35.478Z,99.90
2022-09-09T21:56:06.205Z,99.90
2022-09-09T21:58:34.458Z,99.90
2022-09-09T22:01:01.474Z,99.90
2022-09-09T22:03:28.679Z,99.90
2022-09-09T22:05:55.561Z,99.90
2022-09-09T22:08:22.351Z,99.90
2022-09-09T22:10:49.165Z,99.90
2022-09-09T22:13:17.171Z,99.90
2022-09-09T22:15:45.925Z,99.90
2022-09-09T22:18:15.947Z,99.90
2022-09-09T22:20:45.066Z,99.90
2022-09-09T22:23:12.967Z,99.90
2022-09-09T22:25:40.464Z,99.90
2022-09-09T22:28:09.298Z,99.90
2022-09-09T22:30:36.240Z,99.90
2022-09-09T22:33:03.074Z,99.90
2022-09-09T22:35:29.884Z,99.90
2022-09-09T22:37:57.841Z,99.90
2022-09-09T22:40:24.662Z,99.90
2022-09-09T22:42:53.047Z,99.90
2022-09-09T22:45:21.673Z,99.90
2022-09-09T22:47:48.619Z,99.90
2022-09-09T22:50:15.475Z,99.90
2022-09-09T22:52:42.378Z,99.90
2022-09-09T22:55:09.502Z,99.90
2022-09-09T22:57:37.340Z,99.90
2022-09-09T23:00:09.012Z,99.90
2022-09-09T23:02:40.836Z,99.90
2022-09-09T23:05:11.501Z,99.90
2022-09-09T23:07:38.542Z,99.90
2022-09-09T23:10:06.787Z,99.90
2022-09-09T23:12:34.296Z,99.90
2022-09-09T23:15:01.202Z,99.90
2022-09-09T23:17:28.069Z,99.90
2022-09-09T23:19:56.417Z,99.90
2022-09-09T23:22:24.484Z,99.90
2022-09-09T23:24:52.801Z,99.90
2022-09-09T23:27:21.429Z,99.90
2022-09-09T23:29:49.650Z,99.90
2022-09-09T23:32:17.847Z,99.90
2022-09-09T23:34:47.356Z,99.90
2022-09-09T23:37:14.238Z,99.90
2022-09-09T23:39:41.144Z,99.90
2022-09-09T23:42:09.626Z,99.90
2022-09-09T23:44:38.347Z,99.90
2022-09-09T23:47:06.801Z,99.90
2022-09-09T23:49:34.887Z,99.90
2022-09-09T23:52:05.331Z,99.90
2022-09-09T23:54:34.170Z,99.90
2022-09-09T23:57:02.962Z,99.90
2022-09-09T23:59:31.037Z,99.90
